Juneau, WI

5:31 PM CST on January 23, 2017 (GMT -0600)
Dodge County

Weather History for KUNU - September, 2014

Change the Weather History Date:

Friday, September 19, 2014

  Actual Average Record
Temperature  
Mean Temperature 60 °F -  
Max Temperature 72 °F 68 °F 85 °F (1978)
Min Temperature 49 °F 49 °F 33 °F (2012)
Degree Days  
Heating Degree Days 4    
Growing Degree Days 10 (Base 50)    
Moisture  
Dew Point 51 °F    
Average Humidity 72    
Maximum Humidity 100    
Minimum Humidity 43    
Precipitation  
Precipitation 0.00 in - - ()
Sea Level Pressure  
Sea Level Pressure 30.04 in    
Wind  
Wind Speed 10 mph (SSE)    
Max Wind Speed 24 mph    
Max Gust Speed 32 mph    
Visibility 7 miles    
Events Fog    
Averages and records for this station are not official NWS values.
T = Trace of Precipitation, MM = Missing Value Source: NWS Daily Summary

Daily Weather History Graph

Daily Weather History Graph

Search for Another Location

Airport or City:

Trip Planner

Search our weather history database for the weather conditions in past years. The results will help you decide how hot, cold, wet, or windy it might be!

Date:

Astronomy

Sep. 19, 2014 Rise Set
Actual Time 6:38 AM CDT 6:57 PM CDT
Civil Twilight 6:10 AM CDT 7:26 PM CDT
Nautical Twilight 5:36 AM CDT 7:59 PM CDT
Astronomical Twilight 5:01 AM CDT 8:34 PM CDT
Moon 2:17 AM CDT (9/19) 4:31 PM CDT (9/19)
Length of Visible Light 13h 16m
Length of Day
12h 18m
Waning Crescent, 18% of the Moon is Illuminated
Sep 19
Waning Crescent
Sep 24
New
Oct 1
First Quarter
Oct 8
Full
Oct 15
Last Quarter

Hourly Weather History & Observations

Time (CDT) Temp. Dew Point Humidity Pressure Visibility Wind Dir Wind Speed Gust Speed Precip Events Conditions
12:15 AM 49.1 °F 48.7 °F 99% 30.18 in 0.2 mi SE 4.6 mph - N/A Fog Fog
12:35 AM 49.3 °F 49.1 °F 99% 30.17 in 0.2 mi East 4.6 mph - N/A Fog Fog
12:55 AM 49.5 °F 49.3 °F 99% 30.17 in 0.2 mi Calm Calm - N/A Fog Fog
1:15 AM 49.1 °F 49.1 °F 100% 30.17 in 0.2 mi SE 4.6 mph - N/A Fog Fog
1:35 AM 49.3 °F 49.1 °F 99% 30.16 in 0.2 mi SE 10.4 mph - N/A Fog Fog
1:55 AM 49.1 °F 49.1 °F 100% 30.16 in 0.2 mi SE 11.5 mph - N/A Fog Fog
2:15 AM 49.5 °F 49.3 °F 99% 30.16 in 0.2 mi SE 6.9 mph - N/A Fog Fog
2:35 AM 50.0 °F 50.0 °F 100% 30.15 in 0.2 mi SE 6.9 mph - N/A Fog Fog
2:55 AM 50.9 °F 50.5 °F 99% 30.15 in 0.2 mi SSE 6.9 mph - N/A Fog Fog
3:15 AM 50.9 °F 50.9 °F 100% 30.15 in 0.2 mi SSE 4.6 mph - N/A Fog Fog
3:35 AM 51.8 °F 51.6 °F 99% 30.15 in 0.2 mi SSE 6.9 mph - N/A Fog Fog
3:55 AM 52.2 °F 52.0 °F 99% 30.15 in 1.2 mi SSE 6.9 mph - N/A   Overcast
4:15 AM 52.7 °F 52.3 °F 99% 30.16 in 0.5 mi SE 4.6 mph - N/A Fog Fog
4:35 AM 52.7 °F 52.7 °F 100% 30.16 in 0.2 mi SE 5.8 mph - N/A Fog Fog
4:55 AM 53.1 °F 52.9 °F 99% 30.15 in 0.2 mi SSE 6.9 mph - N/A Fog Fog
5:15 AM 53.6 °F 53.2 °F 99% 30.14 in 0.2 mi SSE 5.8 mph - N/A Fog Fog
5:35 AM 53.6 °F 53.6 °F 100% 30.14 in 0.2 mi SSE 6.9 mph - N/A Fog Fog
5:55 AM 53.8 °F 53.8 °F 100% 30.14 in 0.2 mi SSE 10.4 mph - N/A Fog Fog
6:15 AM 54.0 °F 53.8 °F 99% 30.14 in 0.5 mi SSE 8.1 mph - N/A Fog Fog
6:35 AM 54.1 °F 54.0 °F 99% 30.14 in 1.2 mi SSE 6.9 mph - N/A   Overcast
6:55 AM 54.3 °F 53.8 °F 98% 30.14 in 1.8 mi SSE 8.1 mph - N/A   Overcast
7:15 AM 54.5 °F 53.8 °F 97% 30.15 in 1.8 mi SSE 5.8 mph - N/A   Overcast
7:35 AM 54.5 °F 53.8 °F 97% 30.15 in 2.5 mi SSE 8.1 mph - N/A   Overcast
7:55 AM 54.5 °F 53.8 °F 97% 30.14 in 2.5 mi SE 5.8 mph - N/A   Overcast
8:15 AM 54.7 °F 53.6 °F 96% 30.15 in 3.0 mi SSE 5.8 mph - N/A   Overcast
8:35 AM 55.4 °F 53.8 °F 94% 30.15 in 4.0 mi SSE 6.9 mph - N/A   Scattered Clouds
8:55 AM 56.8 °F 54.1 °F 91% 30.13 in 7.0 mi SSE 6.9 mph - N/A   Clear
9:15 AM 58.8 °F 54.0 °F 84% 30.13 in 10.0 mi SSE 10.4 mph - N/A   Clear
9:35 AM 60.8 °F 53.6 °F 77% 30.13 in 10.0 mi SSE 12.7 mph - N/A   Clear
9:55 AM 62.1 °F 52.9 °F 72% 30.11 in 10.0 mi SSE 11.5 mph 17.3 mph N/A   Clear
10:15 AM 63.5 °F 52.3 °F 67% 30.11 in 10.0 mi South 15.0 mph 20.7 mph N/A   Clear
10:35 AM 64.6 °F 52.7 °F 65% 30.11 in 10.0 mi South 12.7 mph - N/A   Clear
10:55 AM 66.0 °F 52.2 °F 61% 30.10 in 10.0 mi South 15.0 mph 18.4 mph N/A   Clear
11:15 AM 66.9 °F 52.3 °F 59% 30.10 in 10.0 mi South 15.0 mph 20.7 mph N/A   Clear
11:35 AM 68.7 °F 52.7 °F 57% 30.09 in 10.0 mi South 17.3 mph 24.2 mph N/A   Clear
11:55 AM 68.9 °F 51.1 °F 53% 30.08 in 10.0 mi South 17.3 mph 23.0 mph N/A   Clear
12:15 PM 69.3 °F 50.2 °F 51% 30.08 in 10.0 mi South 20.7 mph 25.3 mph N/A   Clear
12:35 PM 69.8 °F 50.5 °F 50% 30.06 in 10.0 mi South 20.7 mph 26.5 mph N/A   Clear
12:55 PM 70.5 °F 50.0 °F 48% 30.06 in 10.0 mi South 18.4 mph 26.5 mph N/A   Clear
1:35 PM 70.9 °F 49.8 °F 47% 30.02 in 10.0 mi SSE 20.7 mph 26.5 mph N/A   Clear
1:55 PM 70.9 °F 49.3 °F 46% 30.02 in 10.0 mi South 20.7 mph 27.6 mph N/A   Clear
2:35 PM 71.4 °F 48.4 °F 44% 29.99 in 10.0 mi South 23.0 mph 32.2 mph N/A   Clear
2:55 PM 71.8 °F 49.1 °F 45% 29.98 in 10.0 mi South 24.2 mph 32.2 mph N/A   Clear
3:15 PM 72.0 °F 48.6 °F 43% 29.97 in 10.0 mi South 20.7 mph 28.8 mph N/A   Clear
3:35 PM 72.1 °F 48.7 °F 43% 29.97 in 10.0 mi South 18.4 mph 29.9 mph N/A   Clear
3:55 PM 72.1 °F 48.7 °F 43% 29.96 in 10.0 mi South 19.6 mph 26.5 mph N/A   Clear
4:15 PM 72.0 °F 48.6 °F 43% 29.95 in 10.0 mi South 23.0 mph 28.8 mph N/A   Clear
4:35 PM 71.6 °F 48.6 °F 44% 29.95 in 10.0 mi South 20.7 mph 29.9 mph N/A   Clear
4:55 PM 71.2 °F 48.4 °F 44% 29.95 in 10.0 mi South 18.4 mph 29.9 mph N/A   Clear
5:15 PM 70.9 °F 48.6 °F 45% 29.94 in 10.0 mi South 16.1 mph 28.8 mph N/A   Clear
5:35 PM 70.7 °F 49.6 °F 47% 29.93 in 10.0 mi South 19.6 mph 25.3 mph N/A   Clear
5:55 PM 70.2 °F 49.8 °F 48% 29.92 in 10.0 mi South 15.0 mph 23.0 mph N/A   Clear
6:15 PM 69.4 °F 49.8 °F 50% 29.92 in 10.0 mi South 17.3 mph 23.0 mph N/A   Clear
6:35 PM 68.9 °F 49.1 °F 49% 29.90 in 10.0 mi South 13.8 mph 23.0 mph N/A   Clear
6:55 PM 67.1 °F 49.6 °F 53% 29.90 in 10.0 mi South 15.0 mph - N/A   Clear
7:15 PM 66.4 °F 49.6 °F 55% 29.90 in 10.0 mi South 12.7 mph - N/A   Clear
7:35 PM 65.8 °F 49.8 °F 56% 29.89 in 10.0 mi South 13.8 mph - N/A   Clear
7:55 PM 65.7 °F 50.0 °F 57% 29.88 in 10.0 mi South 15.0 mph 20.7 mph N/A   Clear
8:15 PM 65.7 °F 49.6 °F 56% 29.88 in 10.0 mi South 16.1 mph 23.0 mph N/A   Clear
8:35 PM 65.3 °F 49.6 °F 57% 29.89 in 10.0 mi South 15.0 mph 19.6 mph N/A   Clear
8:55 PM 64.8 °F 49.8 °F 58% 29.89 in 10.0 mi South 15.0 mph - N/A   Clear
9:15 PM 64.6 °F 50.0 °F 59% 29.88 in 10.0 mi South 17.3 mph 20.7 mph N/A   Clear
9:35 PM 64.9 °F 50.0 °F 58% 29.88 in 10.0 mi South 16.1 mph 19.6 mph N/A   Clear
9:55 PM 64.6 °F 50.2 °F 60% 29.87 in 10.0 mi South 15.0 mph 21.9 mph N/A   Clear
10:15 PM 64.0 °F 50.4 °F 61% 29.87 in 10.0 mi South 13.8 mph 20.7 mph N/A   Clear
10:35 PM 63.7 °F 50.5 °F 62% 29.87 in 10.0 mi South 16.1 mph - N/A   Clear
10:55 PM 63.0 °F 50.9 °F 65% 29.87 in 10.0 mi South 12.7 mph - N/A   Clear
11:15 PM 62.6 °F 51.1 °F 66% 29.87 in 10.0 mi South 13.8 mph - N/A   Clear
11:35 PM 62.2 °F 51.8 °F 69% 29.87 in 10.0 mi South 10.4 mph - N/A   Clear
11:55 PM 62.4 °F 52.2 °F 69% 29.87 in 10.0 mi SSW 9.2 mph - N/A   Clear